Map

Track Data

SID SEASON NUMBER BASIN SUBBASIN NAME ISO_TIME NATURE LAT LON WMO_WIND WMO_PRES WMO_AGENCY TRACK_TYPE DIST2LAND LANDFALL IFLAG USA_AGENCY USA_ATCF_ID USA_LAT USA_LON USA_RECORD USA_STATUS USA_WIND USA_PRES USA_SSHS USA_R34_NE USA_R34_SE USA_R34_SW USA_R34_NW USA_R50_NE USA_R50_SE USA_R50_SW USA_R50_NW USA_R64_NE USA_R64_SE USA_R64_SW USA_R64_NW USA_POCI USA_ROCI USA_RMW USA_EYE TOKYO_LAT TOKYO_LON TOKYO_GRADE TOKYO_WIND TOKYO_PRES TOKYO_R50_DIR TOKYO_R50_LONG TOKYO_R50_SHORT TOKYO_R30_DIR TOKYO_R30_LONG TOKYO_R30_SHORT TOKYO_LAND CMA_LAT CMA_LON CMA_CAT CMA_WIND CMA_PRES HKO_LAT HKO_LON HKO_CAT HKO_WIND HKO_PRES NEWDELHI_LAT NEWDELHI_LON NEWDELHI_GRADE NEWDELHI_WIND NEWDELHI_PRES NEWDELHI_CI NEWDELHI_DP NEWDELHI_POCI REUNION_LAT REUNION_LON REUNION_TYPE REUNION_WIND REUNION_PRES REUNION_TNUM REUNION_CI REUNION_RMW REUNION_R34_NE REUNION_R34_SE REUNION_R34_SW REUNION_R34_NW REUNION_R50_NE REUNION_R50_SE REUNION_R50_SW REUNION_R50_NW REUNION_R64_NE REUNION_R64_SE REUNION_R64_SW REUNION_R64_NW BOM_LAT BOM_LON BOM_TYPE BOM_WIND BOM_PRES BOM_TNUM BOM_CI BOM_RMW BOM_R34_NE BOM_R34_SE BOM_R34_SW BOM_R34_NW BOM_R50_NE BOM_R50_SE BOM_R50_SW BOM_R50_NW BOM_R64_NE BOM_R64_SE BOM_R64_SW BOM_R64_NW BOM_ROCI BOM_POCI BOM_EYE BOM_POS_METHOD BOM_PRES_METHOD NADI_LAT NADI_LON NADI_CAT NADI_WIND NADI_PRES WELLINGTON_LAT WELLINGTON_LON WELLINGTON_WIND WELLINGTON_PRES DS824_LAT DS824_LON DS824_STAGE DS824_WIND DS824_PRES TD9636_LAT TD9636_LON TD9636_STAGE TD9636_WIND TD9636_PRES TD9635_LAT TD9635_LON TD9635_WIND TD9635_PRES TD9635_ROCI NEUMANN_LAT NEUMANN_LON NEUMANN_CLASS NEUMANN_WIND NEUMANN_PRES MLC_LAT MLC_LON MLC_CLASS MLC_WIND MLC_PRES USA_GUST BOM_GUST BOM_GUST_PER REUNION_GUST REUNION_GUST_PER USA_SEAHGT USA_SEARAD_NE USA_SEARAD_SE USA_SEARAD_SW USA_SEARAD_NW STORM_SPEED STORM_DIR
1979198N11256 1979 57 EP MM DOLORES 1979-07-17 06:00:00 TS 10.5000 -103.700 25 hurdat_epa main 811 808 O________OO___ hurdat_epa EP041979 10.5000 -103.700 TD 25 -1 10.5000 -103.700 TC 25 10.5000 -103.700 1 25 16 285
1979198N11256 1979 57 EP MM DOLORES 1979-07-17 09:00:00 TS 10.7043 -104.491 main 824 824 P________PP___ EP041979 10.6979 -104.495 TD 27 -1 10.6979 -104.495 TC 27 10.7300 -104.477 1 27 16 284
1979198N11256 1979 57 EP MM DOLORES 1979-07-17 12:00:00 TS 10.9000 -105.300 30 hurdat_epa main 846 842 O________OO___ hurdat_epa EP041979 10.9000 -105.300 TD 30 -1 10.9000 -105.300 TC 30 10.9000 -105.300 1 30 17 283
1979198N11256 1979 57 EP MM DOLORES 1979-07-17 15:00:00 TS 11.0698 -106.142 main 853 853 P________PP___ EP041979 11.0947 -106.127 TD 32 -1 11.0947 -106.127 TC 32 10.9702 -106.199 1 31 17 279
1979198N11256 1979 57 EP MM DOLORES 1979-07-17 18:00:00 TS 11.1549 -107.027 35 hurdat_epa main 879 879 O________OP___ hurdat_epa EP041979 11.2000 -107.000 TS 35 0 11.2000 -107.000 TC 35 10.9747 -107.136 1 32 18 270
1979198N11256 1979 57 EP MM DOLORES 1979-07-17 21:00:00 TS 11.0795 -107.995 main 940 940 P________PP___ EP041979 11.1077 -107.981 TS 35 0 11.1077 -107.981 TC 35 10.9667 -108.054 1 33 18 265
1979198N11256 1979 57 EP MM DOLORES 1979-07-18 00:00:00 TS 11.0000 -108.900 35 hurdat_epa main 1002 1002 O________OO___ hurdat_epa EP041979 11.0000 -108.900 TS 35 0 11.0000 -108.900 TC 35 11.0000 -108.900 2 35 16 269
1979198N11256 1979 57 EP MM DOLORES 1979-07-18 03:00:00 TS 11.0621 -109.604 main 1039 1039 P________PP___ EP041979 11.0396 -109.602 TS 37 0 11.0396 -109.602 TC 37 11.1525 -109.608 2 38 13 280
1979198N11256 1979 57 EP MM DOLORES 1979-07-18 06:00:00 TS 11.2307 -110.208 40 hurdat_epa main 1066 1062 O________OP___ hurdat_epa EP041979 11.2000 -110.200 TS 40 0 11.2000 -110.200 TC 40 11.3534 -110.239 2 42 13 290
1979198N11256 1979 57 EP MM DOLORES 1979-07-18 09:00:00 TS 11.4914 -110.811 main 1075 1072 P________PP___ EP041979 11.4698 -110.807 TS 45 0 11.4698 -110.807 TC 45 11.5777 -110.827 2 46 13 296
1979198N11256 1979 57 EP MM DOLORES 1979-07-18 12:00:00 TS 11.8000 -111.400 50 hurdat_epa main 1088 1087 O________OO___ hurdat_epa EP041979 11.8000 -111.400 TS 50 0 11.8000 -111.400 TC 50 11.8000 -111.400 2 50 13 298
1979198N11256 1979 57 EP MM DOLORES 1979-07-18 15:00:00 TS 12.1063 -112.007 main 1106 1106 P________PP___ EP041979 12.1374 -112.000 TS 57 0 12.1374 -112.000 TC 57 11.9821 -112.036 2 53 13 295
1979198N11256 1979 57 EP MM DOLORES 1979-07-18 18:00:00 TS 12.3515 -112.612 65 hurdat_epa main 1128 1128 O________OP___ hurdat_epa EP041979 12.4000 -112.600 HU 65 1 12.4000 -112.600 TC 65 12.1575 -112.660 2 57 12 286
1979198N11256 1979 57 EP MM DOLORES 1979-07-18 21:00:00 TS 12.4438 -113.223 main 1174 1174 P________PP___ EP041979 12.4725 -113.215 HU 65 1 12.4725 -113.215 TC 65 12.3291 -113.254 2 61 12 277
1979198N11256 1979 57 EP MM DOLORES 1979-07-19 00:00:00 TS 12.5000 -113.800 65 hurdat_epa main 1213 1213 O________OO___ hurdat_epa EP041979 12.5000 -113.800 HU 65 1 12.5000 -113.800 TC 65 12.5000 -113.800 4 65 11 280
1979198N11256 1979 57 EP MM DOLORES 1979-07-19 03:00:00 TS 12.6361 -114.331 main 1238 1232 P________PP___ EP041979 12.6274 -114.337 HU 65 1 12.6274 -114.337 TC 65 12.6705 -114.304 4 66 10 288
1979198N11256 1979 57 EP MM DOLORES 1979-07-19 06:00:00 TS 12.8084 -114.791 65 hurdat_epa main 1238 1231 O________OP___ hurdat_epa EP041979 12.8000 -114.800 HU 65 1 12.8000 -114.800 TC 65 12.8421 -114.755 4 67 9 293
1979198N11256 1979 57 EP MM DOLORES 1979-07-19 09:00:00 TS 12.9914 -115.181 main 1236 1225 P________PP___ EP041979 12.9849 -115.188 HU 67 1 12.9849 -115.188 TC 67 13.0176 -115.154 4 68 8 300
1979198N11256 1979 57 EP MM DOLORES 1979-07-19 12:00:00 TS 13.2000 -115.500 70 hurdat_epa main 1230 1221 O________OO___ hurdat_epa EP041979 13.2000 -115.500 HU 70 1 13.2000 -115.500 TC 70 13.2000 -115.500 4 70 7 308
1979198N11256 1979 57 EP MM DOLORES 1979-07-19 15:00:00 TS 13.4404 -115.771 main 1226 1208 P________PP___ EP041979 13.4574 -115.765 HU 72 1 13.4574 -115.765 TC 72 13.3721 -115.793 4 72 7 314
1979198N11256 1979 57 EP MM DOLORES 1979-07-19 18:00:00 TS 13.6709 -116.008 75 hurdat_epa main 1208 1204 O________OP___ hurdat_epa EP041979 13.7000 -116.000 HU 75 1 13.7000 -116.000 TC 75 13.5544 -116.038 4 75 6 310
1979198N11256 1979 57 EP MM DOLORES 1979-07-19 21:00:00 TS 13.8259 -116.247 main 1209 1202 P________PP___ EP041979 13.8425 -116.243 HU 77 1 13.8425 -116.243 TC 77 13.7596 -116.265 4 77 6 305
1979198N11256 1979 57 EP MM DOLORES 1979-07-20 00:00:00 TS 14.0000 -116.500 80 hurdat_epa main 1208 1199 O________OO___ hurdat_epa EP041979 14.0000 -116.500 HU 80 1 14.0000 -116.500 TC 80 14.0000 -116.500 4 80 7 310
1979198N11256 1979 57 EP MM DOLORES 1979-07-20 03:00:00 TS 14.2714 -116.791 main 1199 1191 P________PP___ EP041979 14.2700 -116.793 HU 90 2 14.2700 -116.793 TC 90 14.2769 -116.786 4 83 8 316
1979198N11256 1979 57 EP MM DOLORES 1979-07-20 06:00:00 TS 14.5980 -117.097 100 hurdat_epa main 1191 1178 O________OP___ hurdat_epa EP041979 14.6000 -117.100 HU 100 3 14.6000 -117.100 TC 100 14.5900 -117.085 4 87 9 318
1979198N11256 1979 57 EP MM DOLORES 1979-07-20 09:00:00 TS 14.9406 -117.404 main 1185 1173 P________PP___ EP041979 14.9425 -117.408 HU 97 3 14.9425 -117.408 TC 97 14.9331 -117.392 4 91 9 320
1979198N11256 1979 57 EP MM DOLORES 1979-07-20 12:00:00 TS 15.3000 -117.700 95 hurdat_epa main 1173 1163 O________OO___ hurdat_epa EP041979 15.3000 -117.700 HU 95 2 15.3000 -117.700 TC 95 15.3000 -117.700 4 95 9 323
1979198N11256 1979 57 EP MM DOLORES 1979-07-20 15:00:00 TS 15.6444 -117.952 main 1170 1154 P________PP___ EP041979 15.6349 -117.943 HU 95 2 15.6349 -117.943 TC 95 15.6823 -117.988 4 97 9 325
1979198N11256 1979 57 EP MM DOLORES 1979-07-20 18:00:00 TS 16.0169 -118.216 95 hurdat_epa main 1154 1142 O________OP___ hurdat_epa EP041979 16.0000 -118.200 HU 95 2 16.0000 -118.200 TC 95 16.0846 -118.278 4 100 10 325
1979198N11256 1979 57 EP MM DOLORES 1979-07-20 21:00:00 TS 16.4529 -118.538 main 1132 1122 P________PP___ EP041979 16.4425 -118.528 HU 100 3 16.4425 -118.528 TC 100 16.4947 -118.579 4 102 11 323
1979198N11256 1979 57 EP MM DOLORES 1979-07-21 00:00:00 TS 16.9000 -118.900 105 hurdat_epa main 1122 1107 O________OO___ hurdat_epa EP041979 16.9000 -118.900 HU 105 3 16.9000 -118.900 TC 105 16.9000 -118.900 4 105 11 320
1979198N11256 1979 57 EP MM DOLORES 1979-07-21 03:00:00 TS 17.3052 -119.292 main 1114 1104 P________PP___ EP041979 17.3150 -119.300 HU 102 3 17.3150 -119.300 TC 102 17.2660 -119.258 4 101 11 316
1979198N11256 1979 57 EP MM DOLORES 1979-07-21 06:00:00 TS 17.6855 -119.687 100 hurdat_epa main 1109 1108 O________OP___ hurdat_epa EP041979 17.7000 -119.700 HU 100 3 17.7000 -119.700 TC 100 17.6276 -119.636 4 97 10 316
1979198N11256 1979 57 EP MM DOLORES 1979-07-21 09:00:00 TS 18.0399 -120.038 main 1108 1108 P________PP___ EP041979 18.0498 -120.043 HU 95 2 18.0498 -120.043 TC 95 18.0003 -120.021 4 93 10 317
1979198N11256 1979 57 EP MM DOLORES 1979-07-21 12:00:00 TS 18.4000 -120.400 90 hurdat_epa main 1108 1108 O________OO___ hurdat_epa EP041979 18.4000 -120.400 HU 90 2 18.4000 -120.400 TC 90 18.4000 -120.400 4 90 11 314
1979198N11256 1979 57 EP MM DOLORES 1979-07-21 15:00:00 TS 18.7853 -120.841 main 1112 1112 P________PP___ EP041979 18.7702 -120.865 HU 77 1 18.7702 -120.865 TC 77 18.8458 -120.746 4 82 12 315
1979198N11256 1979 57 EP MM DOLORES 1979-07-21 18:00:00 TS 19.2239 -121.257 65 hurdat_epa main 1127 1107 O________OP___ hurdat_epa EP041979 19.2000 -121.300 HU 65 1 19.2000 -121.300 TC 65 19.3194 -121.086 4 75 12 326
1979198N11256 1979 57 EP MM DOLORES 1979-07-21 21:00:00 TS 19.7494 -121.533 main 1107 1076 P________PP___ EP041979 19.7347 -121.558 HU 62 0 19.7347 -121.558 TC 62 19.8083 -121.433 4 67 12 335
1979198N11256 1979 57 EP MM DOLORES 1979-07-22 00:00:00 TS 20.3000 -121.800 60 hurdat_epa main 1076 1054 O________OO___ hurdat_epa EP041979 20.3000 -121.800 TS 60 0 20.3000 -121.800 TC 60 20.3000 -121.800 2 60 12 330
1979198N11256 1979 57 EP MM DOLORES 1979-07-22 03:00:00 TS 20.8062 -122.178 main 1060 1049 P________PP___ EP041979 20.8150 -122.170 TS 60 0 20.8150 -122.170 TC 60 20.7709 -122.208 2 57 12 323
1979198N11256 1979 57 EP MM DOLORES 1979-07-22 06:00:00 TS 21.2885 -122.607 60 hurdat_epa main 1049 1048 O________OP___ hurdat_epa EP041979 21.3000 -122.600 TS 60 0 21.3000 -122.600 TC 60 21.2425 -122.636 2 55 12 319
1979198N11256 1979 57 EP MM DOLORES 1979-07-22 09:00:00 TS 21.7376 -123.060 main 1056 1049 P________PP___ EP041979 21.7425 -123.058 TS 55 0 21.7425 -123.058 TC 55 21.7178 -123.071 2 52 12 318
1979198N11256 1979 57 EP MM DOLORES 1979-07-22 12:00:00 TS 22.2000 -123.500 50 hurdat_epa main 1053 1043 O________OO___ hurdat_epa EP041979 22.2000 -123.500 TS 50 0 22.2000 -123.500 TC 50 22.2000 -123.500 2 50 13 323
1979198N11256 1979 57 EP MM DOLORES 1979-07-22 15:00:00 TS 22.7375 -123.864 main 1054 1041 P________PP___ EP041979 22.7497 -123.850 TS 40 0 22.7497 -123.850 TC 40 22.6886 -123.920 2 45 13 328
1979198N11256 1979 57 EP MM DOLORES 1979-07-22 18:00:00 TS 23.2770 -124.226 30 hurdat_epa main 1044 1044 O________OP___ hurdat_epa EP041979 23.3000 -124.200 TD 30 -1 23.3000 -124.200 TC 30 23.1848 -124.331 2 40 12 324
1979198N11256 1979 57 EP MM DOLORES 1979-07-22 21:00:00 TS 23.7438 -124.659 main 1068 1063 P________PP___ EP041979 23.7575 -124.643 TD 30 -1 23.7575 -124.643 TC 30 23.6886 -124.726 2 35 12 319
1979198N11256 1979 57 EP MM DOLORES 1979-07-23 00:00:00 TS 24.2000 -125.100 30 hurdat_epa main 1081 1077 O________OO___ hurdat_epa EP041979 24.2000 -125.100 TD 30 -1 24.2000 -125.100 TC 30 24.2000 -125.100 1 30 12 321
1979198N11256 1979 57 EP MM DOLORES 1979-07-23 03:00:00 TS 24.6917 -125.514 main 1098 1098 P________PP___ EP041979 24.6850 -125.530 TD 30 -1 24.6850 -125.530 TC 30 24.7186 -125.448 1 28 12 325
1979198N11256 1979 57 EP MM DOLORES 1979-07-23 06:00:00 TS 25.2068 -125.880 30 hurdat_epa main 1119 1109 O________OP___ hurdat_epa EP041979 25.2000 -125.900 TD 30 -1 25.2000 -125.900 TC 30 25.2428 -125.776 1 27 12 331
1979198N11256 1979 57 EP MM DOLORES 1979-07-23 09:00:00 TS 25.7521 -126.157 main 1104 1065 P________PP___ EP041979 25.7498 -126.166 TD 27 -1 25.7498 -126.166 TC 27 25.7707 -126.090 1 26 12 337
1979198N11256 1979 57 EP MM DOLORES 1979-07-23 12:00:00 TS 26.3000 -126.400 25 hurdat_epa main 1065 1028 O________OO___ hurdat_epa EP041979 26.3000 -126.400 TD 25 -1 26.3000 -126.400 TC 25 26.3000 -126.400 1 25 12 336
1979198N11256 1979 57 EP MM DOLORES 1979-07-23 15:00:00 TS 26.8127 -126.682 main 1033 1005 P________P____ EP041979 26.8127 -126.682 TD 22 -1 26.8127 -126.682 TC 22 1 11 332
1979198N11256 1979 57 EP MM DOLORES 1979-07-23 18:00:00 TS 27.3000 -127.000 20 hurdat_epa main 1005 O________O____ hurdat_epa EP041979 27.3000 -127.000 TD 20 -1 27.3000 -127.000 TC 20 1 11 330

About IBTrACS Database

This database is a web-friendly format of International Best Track Archive for Climate Stewardship (IBTrACS), a global best track data archive curated by NOAA dating back to 1842.

Updated: 2021-10-25